Cherry Point Marine Corps Ai, North Carolina
Current Conditions -  °F | °C
As of 3:54 AM on Thursday 23 Oct 2014 (Local Time) from KNKT Reporting Station
Clear Clear  
Wind Chill: 52°   Ceiling: Unl
Heat Index: 52°   Visibility: 10mi
Dew Point: 46°   Wind: 9mph
Humidity: 80%   Direction: 300°WNW
Pressure: 29.97"   Gusts: NA
Location:  34.8973°N, 76.9091°W
Report Text: KNKT 230754Z 30008KT 10SM CLR 11/08 A2997 RMK AO2 SLP144 T01110078 $
Loading
Personal Weather Stations






























Interactive Weather Map New forecast layout! Learn more

10-Day Weather Forecast

Advertisements
Track Severe Weather on mobile